sensor_id;sensor_type;location;lat;lon;timestamp;P1;durP1;ratioP1;P2;durP2;ratioP2
58760;SDS011;44529;47.464;19.014;2022-11-20T00:02:02;27.30;;;17.48;;
58760;SDS011;44529;47.464;19.014;2022-11-20T00:05:05;28.40;;;16.85;;
58760;SDS011;44529;47.464;19.014;2022-11-20T00:08:07;26.80;;;17.02;;
58760;SDS011;44529;47.464;19.014;2022-11-20T00:11:11;26.52;;;16.58;;
58760;SDS011;44529;47.464;19.014;2022-11-20T00:14:17;26.45;;;17.40;;
58760;SDS011;44529;47.464;19.014;2022-11-20T00:17:19;28.30;;;17.17;;
58760;SDS011;44529;47.464;19.014;2022-11-20T00:20:21;26.92;;;17.58;;
58760;SDS011;44529;47.464;19.014;2022-11-20T00:23:24;25.80;;;16.30;;
58760;SDS011;44529;47.464;19.014;2022-11-20T00:26:26;27.00;;;16.25;;
58760;SDS011;44529;47.464;19.014;2022-11-20T00:29:29;29.10;;;16.60;;
58760;SDS011;44529;47.464;19.014;2022-11-20T00:32:32;27.05;;;16.35;;
58760;SDS011;44529;47.464;19.014;2022-11-20T00:35:34;25.30;;;16.80;;
58760;SDS011;44529;47.464;19.014;2022-11-20T00:38:36;27.30;;;16.52;;
58760;SDS011;44529;47.464;19.014;2022-11-20T00:41:39;28.62;;;17.08;;
58760;SDS011;44529;47.464;19.014;2022-11-20T00:44:41;26.37;;;17.15;;
58760;SDS011;44529;47.464;19.014;2022-11-20T00:47:43;26.25;;;16.00;;
58760;SDS011;44529;47.464;19.014;2022-11-20T00:50:46;26.60;;;16.20;;
58760;SDS011;44529;47.464;19.014;2022-11-20T00:53:48;26.67;;;16.60;;
58760;SDS011;44529;47.464;19.014;2022-11-20T00:56:52;26.90;;;16.62;;
58760;SDS011;44529;47.464;19.014;2022-11-20T00:59:55;26.42;;;16.75;;
58760;SDS011;44529;47.464;19.014;2022-11-20T01:02:57;27.35;;;15.63;;
58760;SDS011;44529;47.464;19.014;2022-11-20T01:06:00;25.60;;;15.82;;
58760;SDS011;44529;47.464;19.014;2022-11-20T01:09:09;25.35;;;15.93;;
58760;SDS011;44529;47.464;19.014;2022-11-20T01:12:13;27.27;;;17.05;;
58760;SDS011;44529;47.464;19.014;2022-11-20T01:15:15;25.90;;;16.27;;
58760;SDS011;44529;47.464;19.014;2022-11-20T01:18:17;24.95;;;16.33;;
58760;SDS011;44529;47.464;19.014;2022-11-20T01:21:21;27.13;;;17.12;;
58760;SDS011;44529;47.464;19.014;2022-11-20T01:24:25;29.30;;;16.77;;
58760;SDS011;44529;47.464;19.014;2022-11-20T01:27:28;30.33;;;17.75;;
58760;SDS011;44529;47.464;19.014;2022-11-20T01:30:30;30.20;;;18.20;;
58760;SDS011;44529;47.464;19.014;2022-11-20T01:33:32;30.55;;;18.02;;
58760;SDS011;44529;47.464;19.014;2022-11-20T01:36:35;32.63;;;18.95;;
58760;SDS011;44529;47.464;19.014;2022-11-20T01:39:38;33.28;;;18.77;;
58760;SDS011;44529;47.464;19.014;2022-11-20T01:42:44;37.72;;;20.00;;
58760;SDS011;44529;47.464;19.014;2022-11-20T01:46:13;34.80;;;18.40;;
58760;SDS011;44529;47.464;19.014;2022-11-20T01:49:21;33.72;;;20.10;;
58760;SDS011;44529;47.464;19.014;2022-11-20T01:52:33;36.97;;;20.88;;
58760;SDS011;44529;47.464;19.014;2022-11-20T01:55:45;35.80;;;20.33;;
58760;SDS011;44529;47.464;19.014;2022-11-20T02:01:55;41.50;;;21.55;;
58760;SDS011;44529;47.464;19.014;2022-11-20T02:05:00;35.95;;;20.25;;
58760;SDS011;44529;47.464;19.014;2022-11-20T02:08:12;37.28;;;21.67;;
58760;SDS011;44529;47.464;19.014;2022-11-20T02:11:15;38.60;;;22.13;;
58760;SDS011;44529;47.464;19.014;2022-11-20T02:14:17;41.50;;;21.55;;
58760;SDS011;44529;47.464;19.014;2022-11-20T02:17:19;37.80;;;20.95;;
58760;SDS011;44529;47.464;19.014;2022-11-20T02:20:22;35.92;;;21.20;;
58760;SDS011;44529;47.464;19.014;2022-11-20T02:23:30;39.80;;;22.15;;
58760;SDS011;44529;47.464;19.014;2022-11-20T02:26:57;38.95;;;21.85;;
58760;SDS011;44529;47.464;19.014;2022-11-20T02:30:02;39.60;;;22.33;;
58760;SDS011;44529;47.464;19.014;2022-11-20T02:33:09;38.25;;;22.05;;
58760;SDS011;44529;47.464;19.014;2022-11-20T02:36:12;38.13;;;21.60;;
58760;SDS011;44529;47.464;19.014;2022-11-20T02:39:17;39.85;;;22.13;;
58760;SDS011;44529;47.464;19.014;2022-11-20T02:42:22;38.92;;;21.95;;
58760;SDS011;44529;47.464;19.014;2022-11-20T02:45:24;37.08;;;22.00;;
58760;SDS011;44529;47.464;19.014;2022-11-20T02:48:27;38.97;;;20.65;;
58760;SDS011;44529;47.464;19.014;2022-11-20T02:51:34;36.13;;;20.45;;
58760;SDS011;44529;47.464;19.014;2022-11-20T02:54:37;37.83;;;20.55;;
58760;SDS011;44529;47.464;19.014;2022-11-20T02:57:39;35.35;;;19.87;;
58760;SDS011;44529;47.464;19.014;2022-11-20T03:00:41;34.30;;;19.25;;
58760;SDS011;44529;47.464;19.014;2022-11-20T03:03:43;33.55;;;19.80;;
58760;SDS011;44529;47.464;19.014;2022-11-20T03:06:46;35.60;;;20.62;;
58760;SDS011;44529;47.464;19.014;2022-11-20T03:09:48;34.47;;;19.70;;
58760;SDS011;44529;47.464;19.014;2022-11-20T03:12:53;36.08;;;20.85;;
58760;SDS011;44529;47.464;19.014;2022-11-20T03:15:57;30.95;;;18.77;;
58760;SDS011;44529;47.464;19.014;2022-11-20T03:18:59;31.30;;;19.45;;
58760;SDS011;44529;47.464;19.014;2022-11-20T03:22:01;32.70;;;20.10;;
58760;SDS011;44529;47.464;19.014;2022-11-20T03:25:04;37.78;;;20.77;;
58760;SDS011;44529;47.464;19.014;2022-11-20T03:28:07;36.17;;;19.62;;
58760;SDS011;44529;47.464;19.014;2022-11-20T03:31:10;34.67;;;20.23;;
58760;SDS011;44529;47.464;19.014;2022-11-20T03:34:14;33.08;;;19.10;;
58760;SDS011;44529;47.464;19.014;2022-11-20T03:37:17;35.08;;;19.00;;
58760;SDS011;44529;47.464;19.014;2022-11-20T03:40:19;35.20;;;19.62;;
58760;SDS011;44529;47.464;19.014;2022-11-20T03:43:21;33.72;;;20.73;;
58760;SDS011;44529;47.464;19.014;2022-11-20T03:46:23;35.53;;;20.35;;
58760;SDS011;44529;47.464;19.014;2022-11-20T03:49:26;35.35;;;19.90;;
58760;SDS011;44529;47.464;19.014;2022-11-20T03:52:28;34.70;;;19.85;;
58760;SDS011;44529;47.464;19.014;2022-11-20T03:55:31;32.90;;;20.23;;
58760;SDS011;44529;47.464;19.014;2022-11-20T03:58:33;33.55;;;19.75;;
58760;SDS011;44529;47.464;19.014;2022-11-20T04:01:46;32.95;;;20.50;;
58760;SDS011;44529;47.464;19.014;2022-11-20T04:04:50;33.35;;;20.00;;
58760;SDS011;44529;47.464;19.014;2022-11-20T04:07:52;34.63;;;20.17;;
58760;SDS011;44529;47.464;19.014;2022-11-20T04:10:55;33.38;;;20.73;;
58760;SDS011;44529;47.464;19.014;2022-11-20T04:13:59;36.90;;;20.42;;
58760;SDS011;44529;47.464;19.014;2022-11-20T04:17:03;32.65;;;19.67;;
58760;SDS011;44529;47.464;19.014;2022-11-20T04:20:05;32.35;;;20.08;;
58760;SDS011;44529;47.464;19.014;2022-11-20T04:23:08;32.60;;;19.33;;
58760;SDS011;44529;47.464;19.014;2022-11-20T04:26:11;30.30;;;18.70;;
58760;SDS011;44529;47.464;19.014;2022-11-20T04:29:14;31.50;;;19.42;;
58760;SDS011;44529;47.464;19.014;2022-11-20T04:32:16;32.95;;;18.90;;
58760;SDS011;44529;47.464;19.014;2022-11-20T04:35:18;34.22;;;19.37;;
58760;SDS011;44529;47.464;19.014;2022-11-20T04:38:20;32.72;;;19.42;;
58760;SDS011;44529;47.464;19.014;2022-11-20T04:41:23;33.10;;;19.73;;
58760;SDS011;44529;47.464;19.014;2022-11-20T04:44:27;32.88;;;19.52;;
58760;SDS011;44529;47.464;19.014;2022-11-20T04:47:30;32.67;;;19.67;;
58760;SDS011;44529;47.464;19.014;2022-11-20T04:50:32;34.88;;;19.40;;
58760;SDS011;44529;47.464;19.014;2022-11-20T04:53:34;35.03;;;20.23;;
58760;SDS011;44529;47.464;19.014;2022-11-20T04:56:36;33.70;;;20.15;;
58760;SDS011;44529;47.464;19.014;2022-11-20T04:59:39;31.52;;;18.50;;
58760;SDS011;44529;47.464;19.014;2022-11-20T05:02:41;33.08;;;18.65;;
58760;SDS011;44529;47.464;19.014;2022-11-20T05:05:43;29.12;;;18.27;;
58760;SDS011;44529;47.464;19.014;2022-11-20T05:08:45;29.08;;;18.12;;
58760;SDS011;44529;47.464;19.014;2022-11-20T05:11:47;32.10;;;19.65;;
58760;SDS011;44529;47.464;19.014;2022-11-20T05:14:52;33.35;;;19.12;;
58760;SDS011;44529;47.464;19.014;2022-11-20T05:17:55;31.60;;;19.35;;
58760;SDS011;44529;47.464;19.014;2022-11-20T05:20:57;33.28;;;19.52;;
58760;SDS011;44529;47.464;19.014;2022-11-20T05:24:00;36.05;;;20.12;;
58760;SDS011;44529;47.464;19.014;2022-11-20T05:27:02;32.85;;;20.05;;
58760;SDS011;44529;47.464;19.014;2022-11-20T05:30:04;34.33;;;20.60;;
58760;SDS011;44529;47.464;19.014;2022-11-20T05:33:07;36.58;;;20.70;;
58760;SDS011;44529;47.464;19.014;2022-11-20T05:36:10;31.52;;;18.85;;
58760;SDS011;44529;47.464;19.014;2022-11-20T05:39:13;32.33;;;19.10;;
58760;SDS011;44529;47.464;19.014;2022-11-20T05:42:16;32.33;;;19.50;;
58760;SDS011;44529;47.464;19.014;2022-11-20T05:45:33;31.83;;;18.85;;
58760;SDS011;44529;47.464;19.014;2022-11-20T05:48:36;31.05;;;18.23;;
58760;SDS011;44529;47.464;19.014;2022-11-20T05:51:40;30.27;;;18.65;;
58760;SDS011;44529;47.464;19.014;2022-11-20T05:54:43;30.83;;;18.70;;
58760;SDS011;44529;47.464;19.014;2022-11-20T05:57:45;30.48;;;18.05;;
58760;SDS011;44529;47.464;19.014;2022-11-20T06:00:47;27.85;;;16.98;;
58760;SDS011;44529;47.464;19.014;2022-11-20T06:03:50;28.35;;;17.75;;
58760;SDS011;44529;47.464;19.014;2022-11-20T06:06:53;29.20;;;17.95;;
58760;SDS011;44529;47.464;19.014;2022-11-20T06:09:55;30.83;;;17.50;;
58760;SDS011;44529;47.464;19.014;2022-11-20T06:12:57;32.13;;;17.85;;
58760;SDS011;44529;47.464;19.014;2022-11-20T06:16:00;29.45;;;17.00;;
58760;SDS011;44529;47.464;19.014;2022-11-20T06:19:03;27.70;;;16.85;;
58760;SDS011;44529;47.464;19.014;2022-11-20T06:22:06;27.15;;;16.33;;
58760;SDS011;44529;47.464;19.014;2022-11-20T06:25:08;30.90;;;17.85;;
58760;SDS011;44529;47.464;19.014;2022-11-20T06:28:10;30.10;;;17.55;;
58760;SDS011;44529;47.464;19.014;2022-11-20T06:31:13;25.85;;;15.80;;
58760;SDS011;44529;47.464;19.014;2022-11-20T06:34:16;28.25;;;17.48;;
58760;SDS011;44529;47.464;19.014;2022-11-20T06:37:19;29.40;;;16.87;;
58760;SDS011;44529;47.464;19.014;2022-11-20T06:40:21;31.00;;;18.37;;
58760;SDS011;44529;47.464;19.014;2022-11-20T06:43:23;28.73;;;18.48;;
58760;SDS011;44529;47.464;19.014;2022-11-20T06:46:27;29.23;;;17.05;;
58760;SDS011;44529;47.464;19.014;2022-11-20T06:49:29;28.12;;;17.55;;
58760;SDS011;44529;47.464;19.014;2022-11-20T06:52:32;30.60;;;17.65;;
58760;SDS011;44529;47.464;19.014;2022-11-20T06:55:41;28.17;;;17.42;;
58760;SDS011;44529;47.464;19.014;2022-11-20T06:58:44;29.77;;;17.58;;
58760;SDS011;44529;47.464;19.014;2022-11-20T07:01:46;31.55;;;18.02;;
58760;SDS011;44529;47.464;19.014;2022-11-20T07:04:49;31.62;;;19.27;;
58760;SDS011;44529;47.464;19.014;2022-11-20T07:07:51;30.27;;;19.17;;
58760;SDS011;44529;47.464;19.014;2022-11-20T07:10:58;33.53;;;18.92;;
58760;SDS011;44529;47.464;19.014;2022-11-20T07:14:01;28.27;;;17.73;;
58760;SDS011;44529;47.464;19.014;2022-11-20T07:17:03;29.85;;;18.87;;
58760;SDS011;44529;47.464;19.014;2022-11-20T07:20:05;29.65;;;18.45;;
58760;SDS011;44529;47.464;19.014;2022-11-20T07:23:08;34.08;;;19.45;;
58760;SDS011;44529;47.464;19.014;2022-11-20T07:26:10;31.17;;;18.73;;
58760;SDS011;44529;47.464;19.014;2022-11-20T07:29:13;31.58;;;18.87;;
58760;SDS011;44529;47.464;19.014;2022-11-20T07:32:15;32.40;;;18.00;;
58760;SDS011;44529;47.464;19.014;2022-11-20T07:35:17;35.72;;;20.00;;
58760;SDS011;44529;47.464;19.014;2022-11-20T07:38:20;33.78;;;20.23;;
58760;SDS011;44529;47.464;19.014;2022-11-20T07:41:23;31.90;;;19.95;;
58760;SDS011;44529;47.464;19.014;2022-11-20T07:44:25;32.90;;;19.98;;
58760;SDS011;44529;47.464;19.014;2022-11-20T07:47:27;32.97;;;20.17;;
58760;SDS011;44529;47.464;19.014;2022-11-20T07:50:29;34.13;;;19.83;;
58760;SDS011;44529;47.464;19.014;2022-11-20T07:53:31;30.20;;;19.08;;
58760;SDS011;44529;47.464;19.014;2022-11-20T07:56:34;31.33;;;19.20;;
58760;SDS011;44529;47.464;19.014;2022-11-20T07:59:36;35.60;;;19.80;;
58760;SDS011;44529;47.464;19.014;2022-11-20T08:02:38;29.77;;;18.50;;
58760;SDS011;44529;47.464;19.014;2022-11-20T08:05:42;30.60;;;18.60;;
58760;SDS011;44529;47.464;19.014;2022-11-20T08:08:44;28.77;;;18.08;;
58760;SDS011;44529;47.464;19.014;2022-11-20T08:11:46;32.78;;;18.75;;
58760;SDS011;44529;47.464;19.014;2022-11-20T08:15:07;27.83;;;16.87;;
58760;SDS011;44529;47.464;19.014;2022-11-20T08:18:14;29.17;;;18.23;;
58760;SDS011;44529;47.464;19.014;2022-11-20T08:21:33;28.33;;;16.70;;
58760;SDS011;44529;47.464;19.014;2022-11-20T08:24:39;32.50;;;17.80;;
58760;SDS011;44529;47.464;19.014;2022-11-20T08:27:41;32.38;;;18.17;;
58760;SDS011;44529;47.464;19.014;2022-11-20T08:30:44;32.90;;;17.90;;
58760;SDS011;44529;47.464;19.014;2022-11-20T08:33:47;31.40;;;18.73;;
58760;SDS011;44529;47.464;19.014;2022-11-20T08:36:50;29.00;;;18.40;;
58760;SDS011;44529;47.464;19.014;2022-11-20T08:39:52;28.92;;;17.77;;
58760;SDS011;44529;47.464;19.014;2022-11-20T08:42:55;28.02;;;17.73;;
58760;SDS011;44529;47.464;19.014;2022-11-20T08:45:58;29.60;;;18.12;;
58760;SDS011;44529;47.464;19.014;2022-11-20T08:49:00;28.08;;;18.42;;
58760;SDS011;44529;47.464;19.014;2022-11-20T08:52:02;28.73;;;18.12;;
58760;SDS011;44529;47.464;19.014;2022-11-20T08:55:05;28.02;;;17.33;;
58760;SDS011;44529;47.464;19.014;2022-11-20T08:58:09;29.70;;;17.35;;
58760;SDS011;44529;47.464;19.014;2022-11-20T09:01:11;28.23;;;18.30;;
58760;SDS011;44529;47.464;19.014;2022-11-20T09:04:13;28.75;;;18.73;;
58760;SDS011;44529;47.464;19.014;2022-11-20T09:07:16;27.52;;;17.80;;
58760;SDS011;44529;47.464;19.014;2022-11-20T09:10:18;30.15;;;18.35;;
58760;SDS011;44529;47.464;19.014;2022-11-20T09:13:27;30.62;;;18.08;;
58760;SDS011;44529;47.464;19.014;2022-11-20T09:16:30;32.15;;;18.62;;
58760;SDS011;44529;47.464;19.014;2022-11-20T09:19:32;30.42;;;18.33;;
58760;SDS011;44529;47.464;19.014;2022-11-20T09:22:39;29.08;;;19.08;;
58760;SDS011;44529;47.464;19.014;2022-11-20T09:25:42;30.65;;;18.60;;
58760;SDS011;44529;47.464;19.014;2022-11-20T09:28:44;27.50;;;17.73;;
58760;SDS011;44529;47.464;19.014;2022-11-20T09:31:47;30.50;;;19.00;;
58760;SDS011;44529;47.464;19.014;2022-11-20T09:34:49;24.90;;;17.00;;
58760;SDS011;44529;47.464;19.014;2022-11-20T09:37:51;29.52;;;17.42;;
58760;SDS011;44529;47.464;19.014;2022-11-20T09:40:57;26.80;;;17.20;;
58760;SDS011;44529;47.464;19.014;2022-11-20T09:47:46;26.92;;;17.27;;
58760;SDS011;44529;47.464;19.014;2022-11-20T09:54:31;25.62;;;17.12;;
58760;SDS011;44529;47.464;19.014;2022-11-20T09:57:37;26.25;;;18.23;;
58760;SDS011;44529;47.464;19.014;2022-11-20T10:00:44;24.55;;;17.12;;
58760;SDS011;44529;47.464;19.014;2022-11-20T10:03:54;27.60;;;17.75;;
58760;SDS011;44529;47.464;19.014;2022-11-20T10:07:06;29.45;;;18.75;;
58760;SDS011;44529;47.464;19.014;2022-11-20T10:17:02;28.62;;;17.65;;
58760;SDS011;44529;47.464;19.014;2022-11-20T10:20:20;27.45;;;18.83;;
58760;SDS011;44529;47.464;19.014;2022-11-20T10:27:39;35.10;;;19.37;;
58760;SDS011;44529;47.464;19.014;2022-11-20T10:30:44;31.62;;;20.35;;
58760;SDS011;44529;47.464;19.014;2022-11-20T10:33:50;29.52;;;18.48;;
58760;SDS011;44529;47.464;19.014;2022-11-20T10:37:17;27.50;;;17.73;;
58760;SDS011;44529;47.464;19.014;2022-11-20T10:43:33;29.12;;;18.30;;
58760;SDS011;44529;47.464;19.014;2022-11-20T10:46:44;27.92;;;18.60;;
58760;SDS011;44529;47.464;19.014;2022-11-20T10:49:48;27.70;;;17.83;;
58760;SDS011;44529;47.464;19.014;2022-11-20T10:53:04;27.33;;;18.87;;
58760;SDS011;44529;47.464;19.014;2022-11-20T10:59:55;27.92;;;18.70;;
58760;SDS011;44529;47.464;19.014;2022-11-20T11:03:07;25.25;;;17.83;;
58760;SDS011;44529;47.464;19.014;2022-11-20T11:06:43;28.50;;;18.75;;
58760;SDS011;44529;47.464;19.014;2022-11-20T11:09:52;31.25;;;19.75;;
58760;SDS011;44529;47.464;19.014;2022-11-20T11:12:56;31.23;;;19.83;;
58760;SDS011;44529;47.464;19.014;2022-11-20T11:15:58;31.45;;;19.50;;
58760;SDS011;44529;47.464;19.014;2022-11-20T11:19:10;28.25;;;19.15;;
58760;SDS011;44529;47.464;19.014;2022-11-20T11:22:16;31.65;;;19.92;;
58760;SDS011;44529;47.464;19.014;2022-11-20T11:28:22;31.12;;;19.52;;
58760;SDS011;44529;47.464;19.014;2022-11-20T11:31:29;28.20;;;18.80;;
58760;SDS011;44529;47.464;19.014;2022-11-20T11:34:33;27.67;;;19.40;;
58760;SDS011;44529;47.464;19.014;2022-11-20T11:37:36;31.08;;;18.65;;
58760;SDS011;44529;47.464;19.014;2022-11-20T11:40:40;30.05;;;18.85;;
58760;SDS011;44529;47.464;19.014;2022-11-20T11:43:49;28.05;;;18.62;;
58760;SDS011;44529;47.464;19.014;2022-11-20T11:50:30;30.23;;;18.77;;
58760;SDS011;44529;47.464;19.014;2022-11-20T11:53:33;28.58;;;18.50;;
58760;SDS011;44529;47.464;19.014;2022-11-20T11:56:43;27.45;;;18.58;;
58760;SDS011;44529;47.464;19.014;2022-11-20T12:06:26;29.83;;;18.25;;
58760;SDS011;44529;47.464;19.014;2022-11-20T12:09:34;27.75;;;18.08;;
58760;SDS011;44529;47.464;19.014;2022-11-20T12:15:46;26.00;;;17.62;;
58760;SDS011;44529;47.464;19.014;2022-11-20T12:18:50;23.65;;;16.60;;
58760;SDS011;44529;47.464;19.014;2022-11-20T12:25:27;29.08;;;17.77;;
58760;SDS011;44529;47.464;19.014;2022-11-20T12:28:40;32.53;;;18.45;;
58760;SDS011;44529;47.464;19.014;2022-11-20T12:38:48;26.08;;;16.95;;
58760;SDS011;44529;47.464;19.014;2022-11-20T12:52:44;25.75;;;17.12;;
58760;SDS011;44529;47.464;19.014;2022-11-20T13:02:40;26.17;;;15.85;;
58760;SDS011;44529;47.464;19.014;2022-11-20T13:05:59;28.15;;;17.83;;
58760;SDS011;44529;47.464;19.014;2022-11-20T13:09:16;24.58;;;15.80;;
58760;SDS011;44529;47.464;19.014;2022-11-20T13:12:25;25.05;;;15.68;;
58760;SDS011;44529;47.464;19.014;2022-11-20T13:16:01;26.00;;;16.33;;
58760;SDS011;44529;47.464;19.014;2022-11-20T13:19:09;22.55;;;15.43;;
58760;SDS011;44529;47.464;19.014;2022-11-20T13:22:23;26.67;;;17.10;;
58760;SDS011;44529;47.464;19.014;2022-11-20T13:25:44;26.80;;;16.77;;
58760;SDS011;44529;47.464;19.014;2022-11-20T13:28:47;27.33;;;17.90;;
58760;SDS011;44529;47.464;19.014;2022-11-20T13:32:04;25.20;;;17.15;;
58760;SDS011;44529;47.464;19.014;2022-11-20T13:36:05;26.23;;;17.20;;
58760;SDS011;44529;47.464;19.014;2022-11-20T13:38:56;26.05;;;17.12;;
58760;SDS011;44529;47.464;19.014;2022-11-20T13:42:00;28.17;;;17.50;;
58760;SDS011;44529;47.464;19.014;2022-11-20T13:45:09;27.67;;;17.35;;
58760;SDS011;44529;47.464;19.014;2022-11-20T13:48:23;28.60;;;17.95;;
58760;SDS011;44529;47.464;19.014;2022-11-20T13:58:52;26.67;;;17.40;;
58760;SDS011;44529;47.464;19.014;2022-11-20T14:01:36;26.05;;;16.58;;
58760;SDS011;44529;47.464;19.014;2022-11-20T14:04:41;24.98;;;16.25;;
58760;SDS011;44529;47.464;19.014;2022-11-20T14:07:46;23.60;;;16.25;;
58760;SDS011;44529;47.464;19.014;2022-11-20T14:10:49;25.33;;;16.08;;
58760;SDS011;44529;47.464;19.014;2022-11-20T14:17:09;29.70;;;18.08;;
58760;SDS011;44529;47.464;19.014;2022-11-20T14:20:23;28.60;;;18.55;;
58760;SDS011;44529;47.464;19.014;2022-11-20T14:23:28;34.08;;;20.27;;
58760;SDS011;44529;47.464;19.014;2022-11-20T14:26:31;27.77;;;18.33;;
58760;SDS011;44529;47.464;19.014;2022-11-20T14:29:35;28.08;;;18.33;;
58760;SDS011;44529;47.464;19.014;2022-11-20T14:32:39;32.53;;;19.48;;
58760;SDS011;44529;47.464;19.014;2022-11-20T14:35:47;31.85;;;19.95;;
58760;SDS011;44529;47.464;19.014;2022-11-20T14:38:51;29.25;;;17.98;;
58760;SDS011;44529;47.464;19.014;2022-11-20T14:41:54;28.05;;;19.10;;
58760;SDS011;44529;47.464;19.014;2022-11-20T14:44:59;26.05;;;17.20;;
58760;SDS011;44529;47.464;19.014;2022-11-20T14:48:02;29.12;;;18.35;;
58760;SDS011;44529;47.464;19.014;2022-11-20T14:51:05;28.85;;;19.27;;
58760;SDS011;44529;47.464;19.014;2022-11-20T14:54:08;26.55;;;16.77;;
58760;SDS011;44529;47.464;19.014;2022-11-20T14:57:31;29.92;;;17.80;;
58760;SDS011;44529;47.464;19.014;2022-11-20T15:00:35;26.27;;;16.77;;
58760;SDS011;44529;47.464;19.014;2022-11-20T15:03:39;27.48;;;17.73;;
58760;SDS011;44529;47.464;19.014;2022-11-20T15:06:50;28.05;;;17.25;;
58760;SDS011;44529;47.464;19.014;2022-11-20T15:10:04;29.15;;;17.15;;
58760;SDS011;44529;47.464;19.014;2022-11-20T15:13:12;26.45;;;17.87;;
58760;SDS011;44529;47.464;19.014;2022-11-20T15:16:18;28.25;;;17.17;;
58760;SDS011;44529;47.464;19.014;2022-11-20T15:19:23;26.90;;;18.05;;
58760;SDS011;44529;47.464;19.014;2022-11-20T15:22:27;31.30;;;19.00;;
58760;SDS011;44529;47.464;19.014;2022-11-20T15:25:29;29.75;;;19.25;;
58760;SDS011;44529;47.464;19.014;2022-11-20T15:31:42;31.77;;;21.25;;
58760;SDS011;44529;47.464;19.014;2022-11-20T15:34:47;35.85;;;22.23;;
58760;SDS011;44529;47.464;19.014;2022-11-20T15:37:51;33.60;;;20.98;;
58760;SDS011;44529;47.464;19.014;2022-11-20T15:40:53;33.72;;;21.08;;
58760;SDS011;44529;47.464;19.014;2022-11-20T15:43:57;35.35;;;22.30;;
58760;SDS011;44529;47.464;19.014;2022-11-20T15:46:59;38.45;;;23.35;;
58760;SDS011;44529;47.464;19.014;2022-11-20T15:50:02;37.78;;;23.58;;
58760;SDS011;44529;47.464;19.014;2022-11-20T15:53:04;38.70;;;23.92;;
58760;SDS011;44529;47.464;19.014;2022-11-20T15:56:13;37.67;;;22.80;;
58760;SDS011;44529;47.464;19.014;2022-11-20T15:59:16;38.53;;;23.92;;
58760;SDS011;44529;47.464;19.014;2022-11-20T16:02:18;38.80;;;23.20;;
58760;SDS011;44529;47.464;19.014;2022-11-20T16:05:21;39.50;;;24.52;;
58760;SDS011;44529;47.464;19.014;2022-11-20T16:08:24;40.67;;;25.48;;
58760;SDS011;44529;47.464;19.014;2022-11-20T16:11:27;41.97;;;24.35;;
58760;SDS011;44529;47.464;19.014;2022-11-20T16:14:29;43.38;;;24.12;;
58760;SDS011;44529;47.464;19.014;2022-11-20T16:18:16;40.65;;;24.67;;
58760;SDS011;44529;47.464;19.014;2022-11-20T16:21:20;41.03;;;24.98;;
58760;SDS011;44529;47.464;19.014;2022-11-20T16:24:22;41.03;;;25.10;;
58760;SDS011;44529;47.464;19.014;2022-11-20T16:27:25;40.83;;;24.10;;
58760;SDS011;44529;47.464;19.014;2022-11-20T16:30:27;43.22;;;25.80;;
58760;SDS011;44529;47.464;19.014;2022-11-20T16:33:30;41.75;;;25.15;;
58760;SDS011;44529;47.464;19.014;2022-11-20T16:36:33;40.03;;;25.88;;
58760;SDS011;44529;47.464;19.014;2022-11-20T16:39:35;39.60;;;24.15;;
58760;SDS011;44529;47.464;19.014;2022-11-20T16:42:37;43.75;;;24.73;;
58760;SDS011;44529;47.464;19.014;2022-11-20T16:45:40;39.05;;;25.75;;
58760;SDS011;44529;47.464;19.014;2022-11-20T16:48:44;42.95;;;25.52;;
58760;SDS011;44529;47.464;19.014;2022-11-20T16:51:47;45.53;;;26.60;;
58760;SDS011;44529;47.464;19.014;2022-11-20T16:54:49;42.95;;;25.88;;
58760;SDS011;44529;47.464;19.014;2022-11-20T16:57:51;46.20;;;27.83;;
58760;SDS011;44529;47.464;19.014;2022-11-20T17:00:53;47.38;;;27.90;;
58760;SDS011;44529;47.464;19.014;2022-11-20T17:04:05;45.47;;;28.27;;
58760;SDS011;44529;47.464;19.014;2022-11-20T17:07:08;48.55;;;28.60;;
58760;SDS011;44529;47.464;19.014;2022-11-20T17:10:10;51.20;;;29.77;;
58760;SDS011;44529;47.464;19.014;2022-11-20T17:13:13;48.20;;;29.20;;
58760;SDS011;44529;47.464;19.014;2022-11-20T17:16:16;51.35;;;30.37;;
58760;SDS011;44529;47.464;19.014;2022-11-20T17:19:20;50.10;;;29.77;;
58760;SDS011;44529;47.464;19.014;2022-11-20T17:22:22;50.35;;;29.08;;
58760;SDS011;44529;47.464;19.014;2022-11-20T17:25:24;54.65;;;29.08;;
58760;SDS011;44529;47.464;19.014;2022-11-20T17:28:27;47.80;;;29.87;;
58760;SDS011;44529;47.464;19.014;2022-11-20T17:31:29;50.05;;;30.27;;
58760;SDS011;44529;47.464;19.014;2022-11-20T17:34:32;52.28;;;30.88;;
58760;SDS011;44529;47.464;19.014;2022-11-20T17:37:35;49.53;;;29.52;;
58760;SDS011;44529;47.464;19.014;2022-11-20T17:40:37;55.28;;;31.10;;
58760;SDS011;44529;47.464;19.014;2022-11-20T17:43:40;51.08;;;30.55;;
58760;SDS011;44529;47.464;19.014;2022-11-20T17:46:43;51.92;;;29.37;;
58760;SDS011;44529;47.464;19.014;2022-11-20T17:49:45;49.15;;;30.05;;
58760;SDS011;44529;47.464;19.014;2022-11-20T17:52:47;50.55;;;31.12;;
58760;SDS011;44529;47.464;19.014;2022-11-20T17:55:54;57.45;;;31.15;;
58760;SDS011;44529;47.464;19.014;2022-11-20T17:59:15;59.28;;;32.75;;
58760;SDS011;44529;47.464;19.014;2022-11-20T18:02:19;54.67;;;31.02;;
58760;SDS011;44529;47.464;19.014;2022-11-20T18:05:21;54.95;;;31.02;;
58760;SDS011;44529;47.464;19.014;2022-11-20T18:08:26;54.00;;;31.02;;
58760;SDS011;44529;47.464;19.014;2022-11-20T18:11:29;51.15;;;30.17;;
58760;SDS011;44529;47.464;19.014;2022-11-20T18:14:36;52.25;;;30.83;;
58760;SDS011;44529;47.464;19.014;2022-11-20T18:17:38;52.10;;;30.58;;
58760;SDS011;44529;47.464;19.014;2022-11-20T18:20:40;49.80;;;30.80;;
58760;SDS011;44529;47.464;19.014;2022-11-20T18:23:43;48.95;;;29.98;;
58760;SDS011;44529;47.464;19.014;2022-11-20T18:26:45;51.55;;;30.37;;
58760;SDS011;44529;47.464;19.014;2022-11-20T18:29:47;49.70;;;30.92;;
58760;SDS011;44529;47.464;19.014;2022-11-20T18:32:53;50.35;;;30.05;;
58760;SDS011;44529;47.464;19.014;2022-11-20T18:35:56;50.05;;;30.05;;
58760;SDS011;44529;47.464;19.014;2022-11-20T18:38:58;53.17;;;31.08;;
58760;SDS011;44529;47.464;19.014;2022-11-20T18:42:02;56.08;;;32.67;;
58760;SDS011;44529;47.464;19.014;2022-11-20T18:48:26;54.92;;;30.67;;
58760;SDS011;44529;47.464;19.014;2022-11-20T18:51:28;53.65;;;31.35;;
58760;SDS011;44529;47.464;19.014;2022-11-20T18:54:30;54.25;;;32.17;;
58760;SDS011;44529;47.464;19.014;2022-11-20T18:57:32;53.80;;;31.87;;
58760;SDS011;44529;47.464;19.014;2022-11-20T19:00:35;58.85;;;31.98;;
58760;SDS011;44529;47.464;19.014;2022-11-20T19:03:37;53.70;;;29.35;;
58760;SDS011;44529;47.464;19.014;2022-11-20T19:06:40;51.20;;;31.12;;
58760;SDS011;44529;47.464;19.014;2022-11-20T19:09:44;52.20;;;31.60;;
58760;SDS011;44529;47.464;19.014;2022-11-20T19:12:49;48.47;;;30.83;;
58760;SDS011;44529;47.464;19.014;2022-11-20T19:15:51;52.78;;;31.85;;